Time;durP1;ratioP1;P1;durP2;ratioP2;P2;SDS_P1;SDS_P2;PMS_P1;PMS_P2;Temp;Humidity;BMP_temperature;BMP_pressure;BME280_temperature;BME280_humidity;BME280_pressure;Samples;Min_cycle;Max_cycle;Signal;HPM_P1;HPM_P2
2021/01/16 00:00:19;;;;;;;26.33;18.20;;;3.10;99.90;;;;;;6098207;23;20422;-91
2021/01/16 00:02:47;;;;;;;25.73;18.17;;;3.10;99.90;;;;;;6098186;23;20548;-91
2021/01/16 00:05:15;;;;;;;25.43;18.37;;;3.20;99.90;;;;;;6098123;23;20416;-92
2021/01/16 00:07:43;;;;;;;26.40;18.77;;;3.20;99.90;;;;;;6098042;23;20928;-93
2021/01/16 00:10:11;;;;;;;24.33;17.40;;;3.20;99.90;;;;;;6098664;23;20408;-94
2021/01/16 00:12:38;;;;;;;26.53;18.00;;;3.10;99.90;;;;;;6098471;23;20459;-92
2021/01/16 00:15:05;;;;;;;25.10;17.80;;;3.20;99.90;;;;;;6097975;23;20530;-93
2021/01/16 00:17:31;;;;;;;25.93;18.57;;;3.30;99.90;;;;;;6098134;23;20778;-92
2021/01/16 00:19:59;;;;;;;25.50;18.53;;;3.40;99.90;;;;;;6098446;23;20478;-93
2021/01/16 00:22:25;;;;;;;24.87;18.17;;;3.30;99.90;;;;;;6098643;23;20928;-93
2021/01/16 00:24:51;;;;;;;29.93;18.23;;;3.20;99.90;;;;;;6098485;23;20396;-92
2021/01/16 00:27:18;;;;;;;25.87;18.60;;;3.10;99.90;;;;;;6098184;23;20502;-91
2021/01/16 00:29:44;;;;;;;24.47;17.87;;;3.00;99.90;;;;;;6098121;23;20487;-92
2021/01/16 00:32:11;;;;;;;24.63;18.60;;;3.00;99.90;;;;;;6098255;23;20410;-91
2021/01/16 00:34:37;;;;;;;25.23;18.20;;;3.00;99.90;;;;;;6097915;23;20474;-93
2021/01/16 00:37:05;;;;;;;28.10;18.80;;;2.90;99.90;;;;;;6098105;23;20445;-92
2021/01/16 00:39:31;;;;;;;26.73;18.80;;;3.00;99.90;;;;;;6097800;23;20498;-91
2021/01/16 00:41:58;;;;;;;29.77;17.47;;;2.90;99.90;;;;;;6097939;23;20411;-92
2021/01/16 00:44:24;;;;;;;24.93;17.53;;;3.10;99.90;;;;;;6098336;23;20420;-93
2021/01/16 00:46:51;;;;;;;23.47;17.30;;;2.90;99.90;;;;;;6098066;23;20471;-92
2021/01/16 00:49:17;;;;;;;25.70;18.10;;;2.90;99.90;;;;;;6098186;23;20404;-92
2021/01/16 00:51:46;;;;;;;24.13;17.60;;;3.00;99.90;;;;;;6098423;23;20498;-93
2021/01/16 00:54:13;;;;;;;23.73;17.17;;;2.90;99.90;;;;;;6098003;23;20478;-94
2021/01/16 00:56:39;;;;;;;25.10;17.77;;;2.90;99.90;;;;;;6098416;23;20943;-91
2021/01/16 00:59:06;;;;;;;23.53;15.57;;;2.90;99.90;;;;;;6098877;23;20494;-93
2021/01/16 01:01:38;;;;;;;23.87;18.17;;;2.90;99.90;;;;;;6098034;23;20511;-92
2021/01/16 01:04:06;;;;;;;26.77;16.87;;;2.80;99.90;;;;;;6097749;23;20438;-91
2021/01/16 01:06:32;;;;;;;24.83;17.93;;;2.90;99.90;;;;;;6099723;23;20899;-92
2021/01/16 01:08:59;;;;;;;24.63;16.93;;;2.80;99.90;;;;;;6099957;23;20836;-93
2021/01/16 01:11:26;;;;;;;23.67;17.47;;;2.80;99.90;;;;;;6099721;23;20483;-91
2021/01/16 01:13:53;;;;;;;24.33;18.23;;;2.80;99.90;;;;;;6099174;23;20733;-93
2021/01/16 01:16:20;;;;;;;26.43;18.50;;;2.90;99.90;;;;;;6099467;23;20417;-92
2021/01/16 01:18:46;;;;;;;22.83;17.90;;;2.80;99.90;;;;;;6099902;23;20959;-93
2021/01/16 01:21:13;;;;;;;27.57;18.53;;;2.80;99.90;;;;;;6099747;23;20463;-92
2021/01/16 01:23:39;;;;;;;24.23;17.83;;;2.90;99.90;;;;;;6074644;23;20451;-92
2021/01/16 01:26:06;;;;;;;25.47;18.67;;;2.90;99.90;;;;;;6099175;23;20516;-93
2021/01/16 01:28:33;;;;;;;26.60;18.30;;;2.80;99.90;;;;;;6099528;23;20486;-92
2021/01/16 01:30:59;;;;;;;25.73;18.47;;;2.80;99.90;;;;;;6099284;23;20502;-92
2021/01/16 01:33:26;;;;;;;27.20;18.83;;;2.90;99.90;;;;;;6099457;23;20415;-92
2021/01/16 01:35:52;;;;;;;24.17;17.33;;;2.90;99.90;;;;;;6099254;23;20486;-92
2021/01/16 01:38:19;;;;;;;27.70;18.60;;;2.80;99.90;;;;;;6099356;23;20908;-93
2021/01/16 01:40:45;;;;;;;25.07;17.33;;;2.70;99.90;;;;;;6099534;23;20454;-92
2021/01/16 01:43:12;;;;;;;25.33;18.47;;;2.70;99.90;;;;;;6099155;23;20412;-92
2021/01/16 01:45:40;;;;;;;29.67;17.80;;;2.90;99.90;;;;;;6102192;23;20422;-91
2021/01/16 01:48:08;;;;;;;25.83;17.87;;;2.80;99.90;;;;;;6103206;23;20940;-92
2021/01/16 01:50:34;;;;;;;23.77;18.60;;;2.70;99.90;;;;;;6101499;23;20418;-91
2021/01/16 01:53:02;;;;;;;28.37;19.40;;;2.70;99.90;;;;;;6101260;23;20880;-91
2021/01/16 01:55:28;;;;;;;27.03;18.47;;;2.60;99.90;;;;;;6100546;23;20416;-91
2021/01/16 01:57:56;;;;;;;26.90;18.73;;;2.60;99.90;;;;;;6099774;23;20455;-93
2021/01/16 02:00:23;;;;;;;28.30;20.10;;;2.60;99.90;;;;;;6099327;23;20752;-92
2021/01/16 02:02:51;;;;;;;27.33;20.13;;;2.60;99.90;;;;;;6073946;23;20415;-90
2021/01/16 02:05:17;;;;;;;31.37;19.60;;;2.70;99.90;;;;;;6099642;23;20415;-92
2021/01/16 02:07:44;;;;;;;28.67;19.53;;;2.60;99.90;;;;;;6100578;23;20565;-93
2021/01/16 02:10:13;;;;;;;28.57;21.03;;;2.60;99.90;;;;;;6102553;23;20396;-91
2021/01/16 02:12:40;;;;;;;25.67;18.53;;;2.70;99.90;;;;;;6076891;23;20419;-91
2021/01/16 02:15:17;;;;;;;24.83;18.17;;;2.70;99.90;;;;;;6099128;23;20455;-91
2021/01/16 02:17:45;;;;;;;28.90;20.63;;;2.70;99.90;;;;;;6098437;23;20453;-93
2021/01/16 02:20:14;;;;;;;26.23;18.37;;;2.80;99.90;;;;;;6098975;23;20892;-92
2021/01/16 02:23:00;;;;;;;30.17;19.77;;;2.80;99.90;;;;;;6099273;23;20479;-92
2021/01/16 02:25:37;;;;;;;27.50;18.17;;;2.80;99.90;;;;;;6098846;23;20399;-92
2021/01/16 02:28:07;;;;;;;28.27;18.43;;;2.70;99.90;;;;;;6098605;23;20943;-92
2021/01/16 02:30:35;;;;;;;23.00;17.27;;;2.70;99.90;;;;;;6098934;23;20431;-92
2021/01/16 02:33:04;;;;;;;28.30;19.10;;;2.70;99.90;;;;;;6098645;23;20434;-92
2021/01/16 02:35:32;;;;;;;24.80;18.50;;;2.70;99.90;;;;;;6098580;23;20423;-92
2021/01/16 02:38:12;;;;;;;27.03;18.63;;;2.80;99.90;;;;;;6098413;23;20443;-92
2021/01/16 02:40:42;;;;;;;24.40;18.40;;;2.80;99.90;;;;;;6098724;23;20415;-92
2021/01/16 02:43:31;;;;;;;26.43;18.17;;;2.80;99.90;;;;;;6098438;23;20910;-93
2021/01/16 02:46:11;;;;;;;25.20;18.40;;;2.80;99.90;;;;;;6098836;23;20407;-93
2021/01/16 02:48:49;;;;;;;25.93;18.63;;;2.70;99.90;;;;;;6073433;23;20436;-90
2021/01/16 02:51:26;;;;;;;22.90;16.80;;;2.60;99.90;;;;;;6098497;23;20403;-92
2021/01/16 02:53:54;;;;;;;24.70;17.87;;;2.60;99.90;;;;;;6098586;23;20416;-93
2021/01/16 02:56:28;;;;;;;26.20;18.13;;;2.60;99.90;;;;;;6098422;23;20404;-92
2021/01/16 02:58:56;;;;;;;27.90;18.33;;;2.50;99.90;;;;;;6098569;23;20454;-92
2021/01/16 03:01:23;;;;;;;28.67;18.17;;;2.50;99.90;;;;;;6098841;23;20400;-93
2021/01/16 03:03:49;;;;;;;23.43;18.07;;;2.60;99.90;;;;;;6098483;23;20458;-92
2021/01/16 03:06:17;;;;;;;25.83;18.20;;;2.60;99.90;;;;;;6098359;23;20801;-91
2021/01/16 03:08:43;;;;;;;27.10;18.50;;;2.60;99.90;;;;;;6098556;23;20428;-92
2021/01/16 03:11:11;;;;;;;28.07;19.20;;;2.50;99.90;;;;;;6098517;23;20384;-91
2021/01/16 03:13:38;;;;;;;26.07;18.53;;;2.40;99.90;;;;;;6098571;23;20420;-93
2021/01/16 03:16:09;;;;;;;24.87;17.83;;;2.60;99.90;;;;;;6098180;23;20986;-94
2021/01/16 03:18:43;;;;;;;24.43;18.30;;;2.60;99.90;;;;;;6098263;23;20455;-93
2021/01/16 03:21:09;;;;;;;27.43;18.20;;;2.70;99.90;;;;;;6098076;23;20423;-93
2021/01/16 03:23:35;;;;;;;25.03;17.90;;;2.70;99.90;;;;;;6098396;23;20970;-91
2021/01/16 03:26:02;;;;;;;27.13;18.77;;;2.80;99.90;;;;;;6098623;23;20553;-92
2021/01/16 03:28:28;;;;;;;24.43;18.63;;;2.70;99.90;;;;;;6098235;23;20526;-91
2021/01/16 03:30:55;;;;;;;22.90;17.23;;;2.70;99.90;;;;;;6098371;23;20416;-91
2021/01/16 03:33:22;;;;;;;24.53;18.27;;;2.70;99.90;;;;;;6098445;23;20400;-91
2021/01/16 03:35:49;;;;;;;26.20;17.97;;;2.60;99.90;;;;;;6099546;23;20396;-91
2021/01/16 03:38:15;;;;;;;29.07;18.93;;;2.80;99.90;;;;;;6098063;23;20478;-92
2021/01/16 03:40:42;;;;;;;25.43;18.47;;;2.70;99.90;;;;;;6098228;23;20411;-91
2021/01/16 03:43:08;;;;;;;27.33;19.10;;;2.70;99.90;;;;;;6098412;23;20787;-92
2021/01/16 03:45:34;;;;;;;24.80;18.90;;;2.60;99.90;;;;;;6098162;23;20422;-92
2021/01/16 03:48:01;;;;;;;26.83;19.73;;;2.50;99.90;;;;;;6098026;23;20439;-91
2021/01/16 03:50:28;;;;;;;25.37;19.03;;;2.50;99.90;;;;;;6098151;23;20720;-91
2021/01/16 03:52:55;;;;;;;26.63;18.57;;;2.40;99.90;;;;;;6098364;23;20492;-91
2021/01/16 03:55:21;;;;;;;25.80;17.83;;;2.50;99.90;;;;;;6098038;23;20416;-93
2021/01/16 03:57:48;;;;;;;26.27;18.67;;;2.50;99.90;;;;;;6097875;23;20465;-92
2021/01/16 04:00:15;;;;;;;26.67;18.07;;;2.50;99.90;;;;;;6098393;23;20414;-93
2021/01/16 04:02:41;;;;;;;24.90;17.80;;;2.50;99.90;;;;;;6097732;23;20938;-92
2021/01/16 04:05:10;;;;;;;26.23;17.93;;;2.50;99.90;;;;;;6097601;23;20427;-90
2021/01/16 04:07:37;;;;;;;24.93;18.23;;;2.50;99.90;;;;;;6098008;23;20435;-92
2021/01/16 04:10:05;;;;;;;26.70;18.13;;;2.50;99.90;;;;;;6097888;23;20857;-91
2021/01/16 04:12:31;;;;;;;23.80;16.87;;;2.50;99.90;;;;;;6098731;23;20507;-91
2021/01/16 04:15:00;;;;;;;27.40;18.67;;;2.50;99.90;;;;;;6098230;23;20483;-91
2021/01/16 04:17:26;;;;;;;27.30;19.60;;;2.50;99.90;;;;;;6103089;23;20498;-92
2021/01/16 04:19:53;;;;;;;23.67;18.07;;;2.50;99.90;;;;;;6105651;23;20518;-92
2021/01/16 04:22:19;;;;;;;25.47;18.93;;;2.40;99.90;;;;;;6100566;23;20547;-93
2021/01/16 04:24:46;;;;;;;26.63;18.53;;;2.50;99.90;;;;;;6098158;23;20495;-92
2021/01/16 04:27:12;;;;;;;26.63;18.67;;;2.50;99.90;;;;;;6098086;23;20857;-91
2021/01/16 04:29:39;;;;;;;24.93;18.37;;;2.50;99.90;;;;;;6098039;23;20507;-94
2021/01/16 04:32:06;;;;;;;28.63;19.63;;;2.50;99.90;;;;;;6097929;23;20422;-91
2021/01/16 04:34:32;;;;;;;24.30;17.90;;;2.50;99.90;;;;;;6098152;23;20471;-91
2021/01/16 04:36:59;;;;;;;24.87;18.33;;;2.60;99.90;;;;;;6097864;23;20747;-92
2021/01/16 04:39:25;;;;;;;26.60;18.27;;;2.50;99.90;;;;;;6098749;23;20502;-92
2021/01/16 04:41:53;;;;;;;25.87;18.93;;;2.60;99.90;;;;;;6100423;23;20415;-92
2021/01/16 04:44:22;;;;;;;28.00;19.27;;;2.70;99.90;;;;;;6100299;23;20434;-93
2021/01/16 04:46:50;;;;;;;25.80;19.13;;;2.70;99.90;;;;;;6100212;23;20487;-92
2021/01/16 04:49:18;;;;;;;27.07;19.43;;;2.70;99.90;;;;;;6100272;23;20451;-92
2021/01/16 04:51:48;;;;;;;25.27;18.07;;;2.50;99.90;;;;;;6099871;23;20423;-93
2021/01/16 04:54:16;;;;;;;28.50;18.40;;;2.50;99.90;;;;;;6099753;23;20411;-92
2021/01/16 04:56:43;;;;;;;23.30;17.23;;;2.50;99.90;;;;;;6100227;23;20412;-92
2021/01/16 04:59:10;;;;;;;24.57;17.83;;;2.50;99.90;;;;;;6101609;23;20445;-91
2021/01/16 05:01:37;;;;;;;27.67;18.43;;;2.50;99.90;;;;;;6100604;23;20400;-92
2021/01/16 05:04:03;;;;;;;25.70;18.43;;;2.40;99.90;;;;;;6099514;23;20802;-93
2021/01/16 05:06:30;;;;;;;27.90;18.67;;;2.40;99.90;;;;;;6099965;23;20426;-90
2021/01/16 05:08:58;;;;;;;26.23;18.13;;;2.40;99.90;;;;;;6099929;23;20427;-91
2021/01/16 05:11:43;;;;;;;25.20;17.77;;;2.50;99.90;;;;;;6099552;23;20883;-94
2021/01/16 05:14:15;;;;;;;23.87;16.30;;;2.70;99.90;;;;;;6099502;23;20438;-93
2021/01/16 05:16:51;;;;;;;24.77;17.40;;;2.70;99.90;;;;;;6099305;23;20967;-91
2021/01/16 05:19:22;;;;;;;25.73;17.83;;;2.70;99.90;;;;;;6099346;23;20477;-91
2021/01/16 05:21:48;;;;;;;26.10;18.33;;;2.50;99.90;;;;;;6099549;23;20463;-93
2021/01/16 05:24:16;;;;;;;25.20;17.13;;;2.40;99.90;;;;;;6099475;23;20393;-92
2021/01/16 05:26:55;;;;;;;23.83;17.27;;;2.50;99.90;;;;;;6099330;23;20436;-92
2021/01/16 05:29:25;;;;;;;23.17;17.40;;;2.40;99.90;;;;;;6099710;23;20463;-92
2021/01/16 05:31:52;;;;;;;25.20;17.00;;;2.50;99.90;;;;;;6099965;23;20487;-91
2021/01/16 05:34:19;;;;;;;24.30;17.83;;;2.60;99.90;;;;;;6099432;23;20431;-92
2021/01/16 05:36:46;;;;;;;27.58;24.20;;;2.70;99.90;;;;;;6098608;23;20509;-92
2021/01/16 05:39:13;;;;;;;24.23;19.27;;;2.60;99.90;;;;;;6098838;23;20198;-92
2021/01/16 05:41:40;;;;;;;23.60;17.43;;;2.60;99.90;;;;;;6099355;23;20747;-92
2021/01/16 05:44:08;;;;;;;23.70;17.40;;;2.60;99.90;;;;;;6099713;23;20495;-92
2021/01/16 05:46:36;;;;;;;25.93;17.10;;;2.60;99.90;;;;;;6099383;23;20403;-92
2021/01/16 05:49:04;;;;;;;25.70;17.50;;;2.60;99.90;;;;;;6099027;23;20515;-92
2021/01/16 05:51:31;;;;;;;26.60;17.13;;;2.60;99.90;;;;;;6098746;23;20910;-91
2021/01/16 05:53:58;;;;;;;25.67;18.17;;;2.50;99.90;;;;;;6098952;23;20439;-90
2021/01/16 05:56:30;;;;;;;25.67;16.77;;;2.50;99.90;;;;;;6099205;23;20492;-91
2021/01/16 05:59:00;;;;;;;23.93;16.60;;;2.50;99.90;;;;;;6098960;23;20829;-91
2021/01/16 06:01:26;;;;;;;27.43;18.00;;;2.50;99.90;;;;;;6099053;23;20495;-92
2021/01/16 06:03:55;;;;;;;24.93;17.60;;;2.50;99.90;;;;;;6098984;23;20427;-91
2021/01/16 06:06:23;;;;;;;22.67;16.73;;;2.50;99.90;;;;;;6099592;23;20412;-91
2021/01/16 06:08:50;;;;;;;28.25;23.38;;;2.50;99.90;;;;;;6098300;23;20480;-92
2021/01/16 06:11:17;;;;;;;25.27;18.73;;;2.50;99.90;;;;;;6098945;23;20253;-91
2021/01/16 06:13:47;;;;;;;24.70;17.60;;;2.50;99.90;;;;;;6099010;23;20426;-91
2021/01/16 06:16:15;;;;;;;26.57;16.83;;;2.50;99.90;;;;;;6098548;23;20495;-92
2021/01/16 06:18:46;;;;;;;25.03;18.27;;;2.50;99.90;;;;;;6098661;23;20443;-91
2021/01/16 06:21:23;;;;;;;25.33;17.17;;;2.40;99.90;;;;;;6098637;23;20420;-91
2021/01/16 06:23:53;;;;;;;25.50;17.27;;;2.40;99.90;;;;;;6099999;23;20388;-91
2021/01/16 06:26:21;;;;;;;25.63;17.33;;;2.50;99.90;;;;;;6102466;23;20454;-91
2021/01/16 06:28:55;;;;;;;29.17;17.83;;;2.40;99.90;;;;;;6101773;23;20435;-91
2021/01/16 06:31:26;;;;;;;25.53;17.77;;;2.30;99.90;;;;;;6099074;23;20423;-92
2021/01/16 06:33:58;;;;;;;28.50;17.13;;;2.40;99.90;;;;;;6099206;23;20431;-92
2021/01/16 06:36:28;;;;;;;26.40;18.23;;;2.40;99.90;;;;;;6099033;23;20494;-92
2021/01/16 06:38:57;;;;;;;24.20;16.53;;;2.50;99.90;;;;;;6098575;23;20529;-92
2021/01/16 06:41:28;;;;;;;31.17;18.43;;;2.50;99.90;;;;;;6098593;23;20435;-93
2021/01/16 06:43:55;;;;;;;27.27;17.50;;;2.60;99.90;;;;;;6098691;23;20503;-91
2021/01/16 06:46:42;;;;;;;24.30;16.80;;;2.60;99.90;;;;;;6098461;23;20819;-92
2021/01/16 06:49:18;;;;;;;24.47;16.50;;;2.50;99.90;;;;;;6099538;23;20430;-92
2021/01/16 06:51:45;;;;;;;26.53;17.03;;;2.60;99.90;;;;;;6099349;23;21059;-90
2021/01/16 06:54:12;;;;;;;22.30;15.83;;;2.40;99.90;;;;;;6098551;23;20967;-92
2021/01/16 06:56:40;;;;;;;23.50;16.67;;;2.40;99.90;;;;;;6098327;23;20419;-92
2021/01/16 06:59:14;;;;;;;22.53;16.37;;;2.40;99.90;;;;;;6098733;23;20503;-91
2021/01/16 07:01:41;;;;;;;22.00;15.87;;;2.20;99.90;;;;;;6098415;23;20899;-92
2021/01/16 07:04:13;;;;;;;23.90;16.10;;;2.30;99.90;;;;;;6098441;23;20412;-92
2021/01/16 07:06:47;;;;;;;23.73;16.60;;;2.20;99.90;;;;;;6098835;23;20396;-91
2021/01/16 07:09:17;;;;;;;22.87;15.17;;;2.20;99.90;;;;;;6098735;23;20495;-91
2021/01/16 07:11:43;;;;;;;23.43;15.30;;;2.30;99.90;;;;;;6098605;23;20906;-93
2021/01/16 07:14:11;;;;;;;19.20;14.30;;;2.20;99.90;;;;;;6098646;23;20450;-92
2021/01/16 07:16:38;;;;;;;22.37;14.33;;;2.00;99.90;;;;;;6098334;23;20422;-91
2021/01/16 07:19:04;;;;;;;24.07;15.10;;;2.10;99.90;;;;;;6098343;23;20475;-92
2021/01/16 07:21:31;;;;;;;20.67;14.13;;;2.10;99.90;;;;;;6098307;23;20422;-91
2021/01/16 07:23:58;;;;;;;19.23;14.40;;;2.20;99.90;;;;;;6098500;23;20466;-92
2021/01/16 07:26:26;;;;;;;18.73;13.63;;;2.20;99.90;;;;;;6098332;23;20416;-92
2021/01/16 07:28:55;;;;;;;17.83;13.23;;;2.30;99.90;;;;;;6098983;23;20987;-91
2021/01/16 07:31:21;;;;;;;18.37;12.57;;;2.30;99.90;;;;;;6098855;23;20434;-92
2021/01/16 07:33:51;;;;;;;16.67;11.60;;;2.20;99.90;;;;;;6098491;23;20423;-91
2021/01/16 07:36:24;;;;;;;19.47;11.70;;;2.20;99.90;;;;;;6098472;23;20829;-91
2021/01/16 07:38:53;;;;;;;16.90;11.40;;;2.20;99.90;;;;;;6098130;23;20455;-92
2021/01/16 07:41:22;;;;;;;15.63;10.50;;;2.20;99.90;;;;;;6098428;23;20396;-91
2021/01/16 07:44:05;;;;;;;17.85;12.93;;;2.10;99.90;;;;;;6097576;23;20460;-93
2021/01/16 07:46:33;;;;;;;24.10;12.33;;;2.20;99.90;;;;;;6098960;23;20184;-92
2021/01/16 07:49:00;;;;;;;13.80;9.93;;;2.20;99.90;;;;;;6098167;23;20955;-93
2021/01/16 07:51:32;;;;;;;16.63;10.23;;;2.20;99.90;;;;;;6098316;23;20407;-91
2021/01/16 07:54:02;;;;;;;15.47;8.70;;;2.20;99.90;;;;;;6098315;23;20411;-92
2021/01/16 07:56:40;;;;;;;11.80;9.43;;;2.30;99.90;;;;;;6098328;23;20414;-91
2021/01/16 07:59:18;;;;;;;12.03;8.07;;;2.40;99.90;;;;;;6099021;23;20529;-92
2021/01/16 08:02:19;;;;;;;11.77;8.90;;;2.30;99.90;;;;;;6098912;23;20383;-93
2021/01/16 08:04:58;;;;;;;9.73;7.67;;;2.40;99.90;;;;;;6098237;23;20875;-90
2021/01/16 08:07:53;;;;;;;12.33;8.07;;;2.30;99.90;;;;;;6098206;23;21005;-91
2021/01/16 08:10:20;;;;;;;13.10;8.67;;;2.20;99.90;;;;;;6098430;23;20404;-92
2021/01/16 08:12:56;;;;;;;14.43;9.30;;;2.20;99.90;;;;;;6098518;23;20412;-90
2021/01/16 08:15:29;;;;;;;12.90;8.73;;;2.10;99.90;;;;;;6100046;23;20535;-91
2021/01/16 08:17:55;;;;;;;12.63;8.83;;;2.10;99.90;;;;;;6099415;23;20931;-91
2021/01/16 08:20:27;;;;;;;14.10;9.77;;;2.20;99.90;;;;;;6099529;23;20919;-91
2021/01/16 08:22:56;;;;;;;12.03;10.13;;;2.20;99.90;;;;;;6099480;23;20750;-92
2021/01/16 08:25:24;;;;;;;12.37;9.03;;;2.20;99.90;;;;;;6100176;23;20484;-91
2021/01/16 08:27:53;;;;;;;11.97;9.73;;;2.20;99.90;;;;;;6099599;23;20507;-92
2021/01/16 08:30:21;;;;;;;15.07;9.57;;;2.40;99.90;;;;;;6099597;23;20559;-90
2021/01/16 08:32:56;;;;;;;12.40;10.13;;;2.30;99.90;;;;;;6100052;23;20487;-89
2021/01/16 08:35:24;;;;;;;12.47;9.70;;;2.40;99.90;;;;;;6100696;23;20388;-94
2021/01/16 08:37:51;;;;;;;14.43;9.97;;;2.40;99.90;;;;;;6100168;23;20458;-94
2021/01/16 08:40:33;;;;;;;13.73;9.67;;;2.40;99.90;;;;;;6100506;23;20782;-90
2021/01/16 08:43:00;;;;;;;15.73;10.40;;;2.50;99.90;;;;;;6100172;23;20746;-92
2021/01/16 08:45:27;;;;;;;14.23;9.93;;;2.60;99.90;;;;;;6099974;23;20407;-92
2021/01/16 08:47:54;;;;;;;16.00;10.23;;;2.60;99.90;;;;;;6100137;23;20940;-91
2021/01/16 08:50:22;;;;;;;13.87;10.00;;;2.70;99.90;;;;;;6099639;23;20412;-91
2021/01/16 08:52:48;;;;;;;14.10;10.23;;;2.50;99.90;;;;;;6099693;23;20494;-89
2021/01/16 08:55:15;;;;;;;13.97;10.00;;;2.40;99.90;;;;;;6099900;23;20427;-90
2021/01/16 08:57:41;;;;;;;13.80;10.63;;;2.40;99.90;;;;;;6099744;23;20514;-92
2021/01/16 09:00:19;;;;;;;17.90;10.27;;;2.50;99.90;;;;;;6099682;23;20454;-91
2021/01/16 09:03:04;;;;;;;16.43;11.10;;;2.40;99.90;;;;;;6099852;23;20386;-90
2021/01/16 09:05:32;;;;;;;14.97;11.23;;;2.50;99.90;;;;;;6099572;23;20466;-91
2021/01/16 09:07:59;;;;;;;13.60;10.60;;;2.60;99.90;;;;;;6099658;23;20442;-93
2021/01/16 09:10:27;;;;;;;17.40;10.10;;;2.60;99.90;;;;;;6099510;23;20419;-92
2021/01/16 09:12:54;;;;;;;17.53;10.90;;;2.60;99.90;;;;;;6099533;23;20498;-91
2021/01/16 09:15:23;;;;;;;15.43;10.37;;;2.60;99.90;;;;;;6099584;23;20446;-91
2021/01/16 09:18:08;;;;;;;16.33;10.73;;;2.60;99.90;;;;;;6099605;23;20794;-91
2021/01/16 09:20:36;;;;;;;17.40;10.27;;;2.40;99.90;;;;;;6099678;23;20832;-91
2021/01/16 09:23:32;;;;;;;15.57;10.97;;;2.50;99.90;;;;;;6099886;23;20416;-91
2021/01/16 09:26:07;;;;;;;13.67;9.73;;;2.40;99.90;;;;;;6100206;23;20415;-91
2021/01/16 09:28:43;;;;;;;18.63;10.60;;;2.50;99.90;;;;;;6099487;23;20443;-93
2021/01/16 09:31:19;;;;;;;17.57;10.33;;;2.40;99.90;;;;;;6099730;23;20400;-92
2021/01/16 09:33:46;;;;;;;16.27;10.13;;;2.40;99.90;;;;;;6099776;23;20475;-89
2021/01/16 09:36:33;;;;;;;14.93;11.13;;;2.40;99.90;;;;;;6099506;23;20419;-91
2021/01/16 09:39:00;;;;;;;17.87;9.40;;;2.40;99.90;;;;;;6099421;23;20920;-91
2021/01/16 09:41:33;;;;;;;15.90;10.03;;;2.40;99.90;;;;;;6099545;23;20435;-91
2021/01/16 09:44:00;;;;;;;17.03;10.53;;;2.50;99.90;;;;;;6099599;23;20725;-91
2021/01/16 09:46:35;;;;;;;15.10;10.50;;;2.40;99.90;;;;;;6099265;23;20409;-93
2021/01/16 09:49:02;;;;;;;17.03;10.53;;;2.50;99.90;;;;;;6100560;23;20919;-91
2021/01/16 09:51:30;;;;;;;16.67;10.43;;;2.50;99.90;;;;;;6100305;23;20467;-91
2021/01/16 09:54:09;;;;;;;17.77;10.80;;;2.50;99.90;;;;;;6099770;23;20411;-92
2021/01/16 09:56:42;;;;;;;15.50;10.77;;;2.50;99.90;;;;;;6098612;23;20493;-90
2021/01/16 09:59:09;;;;;;;17.53;10.80;;;2.50;99.90;;;;;;6099325;23;20931;-90
2021/01/16 10:01:36;;;;;;;15.63;10.67;;;2.60;99.90;;;;;;6099020;23;20412;-90
2021/01/16 10:04:05;;;;;;;19.87;11.00;;;2.50;99.90;;;;;;6099494;23;20456;-90
2021/01/16 10:06:34;;;;;;;15.50;10.73;;;2.50;99.90;;;;;;6099318;23;20415;-90
2021/01/16 10:09:01;;;;;;;15.20;11.07;;;2.40;99.90;;;;;;6098915;23;20450;-90
2021/01/16 10:11:42;;;;;;;15.50;10.67;;;2.40;99.90;;;;;;6099311;23;20491;-92
2021/01/16 10:14:12;;;;;;;19.10;11.63;;;2.50;99.90;;;;;;6099655;23;20448;-89
2021/01/16 10:16:40;;;;;;;21.13;11.67;;;2.50;99.90;;;;;;6099034;23;20404;-90
2021/01/16 10:19:11;;;;;;;17.70;10.60;;;2.60;99.90;;;;;;6098999;23;20524;-89
2021/01/16 10:21:51;;;;;;;20.97;11.40;;;2.70;99.90;;;;;;6098844;23;20491;-89
2021/01/16 10:24:19;;;;;;;17.40;11.93;;;2.70;99.90;;;;;;6098884;23;20754;-91
2021/01/16 10:26:47;;;;;;;22.73;12.10;;;2.70;99.90;;;;;;6098807;23;20412;-91
2021/01/16 10:29:22;;;;;;;17.93;12.03;;;2.70;99.90;;;;;;6099164;23;20454;-91
2021/01/16 10:31:49;;;;;;;17.40;12.53;;;2.60;99.90;;;;;;6098993;23;20966;-91
2021/01/16 10:34:15;;;;;;;19.37;12.73;;;2.60;99.90;;;;;;6098844;23;20423;-92
2021/01/16 10:36:42;;;;;;;18.03;11.50;;;2.60;99.90;;;;;;6098548;23;20412;-92
2021/01/16 10:39:10;;;;;;;16.17;11.00;;;2.60;99.90;;;;;;6099713;23;20439;-92
2021/01/16 10:41:38;;;;;;;17.07;11.30;;;2.70;99.90;;;;;;6100407;23;20443;-91
2021/01/16 10:44:06;;;;;;;19.43;12.03;;;2.60;99.90;;;;;;6101068;23;20454;-91
2021/01/16 10:46:41;;;;;;;20.27;12.70;;;2.70;99.90;;;;;;6098743;23;20490;-92
2021/01/16 10:49:19;;;;;;;21.03;12.63;;;2.80;99.90;;;;;;6099024;23;20427;-92
2021/01/16 10:51:51;;;;;;;20.77;12.90;;;2.80;99.90;;;;;;6098496;23;20502;-92
2021/01/16 10:54:19;;;;;;;24.07;14.23;;;2.80;99.90;;;;;;6098895;23;20400;-93
2021/01/16 10:56:58;;;;;;;21.77;13.83;;;2.90;99.90;;;;;;6098939;23;20893;-91
2021/01/16 10:59:25;;;;;;;20.63;13.60;;;2.90;99.90;;;;;;6098391;23;20454;-93
2021/01/16 11:01:52;;;;;;;18.47;12.90;;;2.80;99.90;;;;;;6098590;23;20503;-91
2021/01/16 11:04:22;;;;;;;20.00;13.50;;;2.90;99.90;;;;;;6099009;23;20423;-92
2021/01/16 11:06:51;;;;;;;21.20;13.80;;;2.70;99.90;;;;;;6098915;23;20400;-91
2021/01/16 11:09:42;;;;;;;21.37;14.23;;;2.70;99.90;;;;;;6098484;23;20427;-91
2021/01/16 11:12:10;;;;;;;21.80;14.17;;;2.80;99.90;;;;;;6099284;23;20422;-91
2021/01/16 11:14:37;;;;;;;21.00;13.80;;;2.70;99.90;;;;;;6098374;23;20524;-92
2021/01/16 11:17:05;;;;;;;20.30;13.23;;;2.80;99.90;;;;;;6098357;23;20510;-91
2021/01/16 11:19:35;;;;;;;19.87;13.80;;;2.80;99.90;;;;;;6097974;23;20519;-91
2021/01/16 11:22:06;;;;;;;22.63;13.50;;;2.80;99.90;;;;;;6098814;23;20495;-91
2021/01/16 11:25:08;;;;;;;20.87;14.60;;;2.60;99.90;;;;;;6099016;23;20400;-91
2021/01/16 11:27:36;;;;;;;20.40;14.00;;;2.70;99.90;;;;;;6098660;23;20439;-90
2021/01/16 11:30:07;;;;;;;21.57;14.47;;;2.70;99.90;;;;;;6098215;23;20507;-92
2021/01/16 11:32:38;;;;;;;25.87;17.03;;;2.60;99.90;;;;;;6098512;23;20871;-90
2021/01/16 11:35:08;;;;;;;27.00;15.33;;;2.80;99.90;;;;;;6098182;23;20411;-91
2021/01/16 11:37:45;;;;;;;22.50;15.20;;;2.90;99.90;;;;;;6098392;23;20431;-92
2021/01/16 11:40:25;;;;;;;24.07;16.13;;;2.90;99.90;;;;;;6098323;23;20564;-91
2021/01/16 11:42:53;;;;;;;27.80;17.03;;;2.80;99.90;;;;;;6098656;23;20388;-93
2021/01/16 11:45:20;;;;;;;27.27;16.30;;;2.80;99.90;;;;;;6098894;23;20415;-93
2021/01/16 11:47:51;;;;;;;27.70;17.03;;;2.80;99.90;;;;;;6098082;23;20486;-91
2021/01/16 11:50:19;;;;;;;25.90;15.90;;;2.90;99.90;;;;;;6098747;23;20491;-90
2021/01/16 11:52:45;;;;;;;28.10;15.80;;;2.80;99.90;;;;;;6098299;23;20503;-91
2021/01/16 11:55:13;;;;;;;26.20;17.13;;;3.00;99.90;;;;;;6098924;23;20478;-91
2021/01/16 11:57:40;;;;;;;25.97;16.87;;;2.90;99.90;;;;;;6098038;23;20927;-92
2021/01/16 12:00:08;;;;;;;23.53;16.60;;;2.90;99.90;;;;;;6098123;23;20470;-93
2021/01/16 12:02:34;;;;;;;25.43;16.77;;;2.80;99.90;;;;;;6097816;23;20879;-92
2021/01/16 12:05:01;;;;;;;26.30;16.77;;;2.90;99.90;;;;;;6098303;23;20443;-92
2021/01/16 12:07:30;;;;;;;28.63;19.17;;;2.90;99.90;;;;;;6097818;23;20571;-91
2021/01/16 12:09:58;;;;;;;31.67;16.93;;;2.90;99.90;;;;;;6098316;23;20447;-91
2021/01/16 12:12:31;;;;;;;25.17;16.37;;;2.80;99.90;;;;;;6098225;23;20396;-93
2021/01/16 12:14:59;;;;;;;28.37;18.33;;;2.70;99.90;;;;;;6097727;23;20448;-91
2021/01/16 12:17:29;;;;;;;29.60;18.80;;;2.60;99.90;;;;;;6098065;23;20522;-91
2021/01/16 12:19:55;;;;;;;27.10;18.03;;;2.70;99.90;;;;;;6097827;23;20455;-91
2021/01/16 12:22:23;;;;;;;29.30;18.17;;;2.70;99.90;;;;;;6098117;23;20467;-91
2021/01/16 12:24:53;;;;;;;28.27;19.00;;;2.80;99.90;;;;;;6097785;23;20419;-91
2021/01/16 12:27:22;;;;;;;28.97;18.57;;;2.70;99.90;;;;;;6097712;23;20459;-92
2021/01/16 12:29:54;;;;;;;27.07;17.33;;;2.70;99.90;;;;;;6098649;23;20416;-91
2021/01/16 12:32:21;;;;;;;30.00;19.77;;;2.60;99.90;;;;;;6098171;23;20427;-89
2021/01/16 12:34:49;;;;;;;29.87;19.30;;;2.40;99.90;;;;;;6098271;23;20466;-90
2021/01/16 12:37:27;;;;;;;32.20;20.07;;;2.30;99.90;;;;;;6098246;23;20935;-90
2021/01/16 12:39:55;;;;;;;33.73;20.27;;;2.20;99.90;;;;;;6090958;23;20471;-92
2021/01/16 12:42:22;;;;;;;29.17;19.00;;;2.10;99.90;;;;;;6098267;23;20908;-90
2021/01/16 12:44:49;;;;;;;36.07;19.87;;;2.00;99.90;;;;;;6098740;23;20975;-90
2021/01/16 12:47:21;;;;;;;36.53;22.67;;;1.90;99.90;;;;;;6098674;23;20463;-90
2021/01/16 12:49:52;;;;;;;36.07;21.90;;;1.80;99.90;;;;;;6098822;23;20464;-90